sensor_id;sensor_type;location;lat;lon;timestamp;pressure;altitude;pressure_sealevel;temperature;humidity
64115;BME280;62188;35.640;139.748;2023-04-16T00:00:42;99329.47;;;19.62;46.32
64115;BME280;62188;35.640;139.748;2023-04-16T00:03:08;99334.61;;;19.57;46.29
64115;BME280;62188;35.640;139.748;2023-04-16T00:05:33;99332.83;;;19.78;46.28
64115;BME280;62188;35.640;139.748;2023-04-16T00:07:59;99322.22;;;20.10;46.15
64115;BME280;62188;35.640;139.748;2023-04-16T00:10:25;99318.45;;;19.75;46.06
64115;BME280;62188;35.640;139.748;2023-04-16T00:12:50;99307.34;;;20.39;46.04
64115;BME280;62188;35.640;139.748;2023-04-16T00:15:15;99313.84;;;20.47;45.39
64115;BME280;62188;35.640;139.748;2023-04-16T00:17:41;99310.96;;;20.44;45.26
64115;BME280;62188;35.640;139.748;2023-04-16T00:20:07;99313.21;;;20.50;45.00
64115;BME280;62188;35.640;139.748;2023-04-16T00:22:31;99313.03;;;20.34;44.98
64115;BME280;62188;35.640;139.748;2023-04-16T00:24:56;99322.46;;;20.79;45.08
64115;BME280;62188;35.640;139.748;2023-04-16T00:27:22;99329.06;;;21.21;44.93
64115;BME280;62188;35.640;139.748;2023-04-16T00:29:48;99351.63;;;21.60;44.70
64115;BME280;62188;35.640;139.748;2023-04-16T00:32:13;99374.02;;;21.81;44.21
64115;BME280;62188;35.640;139.748;2023-04-16T00:34:38;99378.35;;;21.43;44.10
64115;BME280;62188;35.640;139.748;2023-04-16T00:37:04;99373.08;;;21.34;43.93
64115;BME280;62188;35.640;139.748;2023-04-16T00:39:29;99378.33;;;21.31;43.90
64115;BME280;62188;35.640;139.748;2023-04-16T00:41:54;99365.63;;;21.54;43.91
64115;BME280;62188;35.640;139.748;2023-04-16T00:44:20;99362.74;;;21.86;43.60
64115;BME280;62188;35.640;139.748;2023-04-16T00:46:46;99373.20;;;22.04;43.15
64115;BME280;62188;35.640;139.748;2023-04-16T00:49:10;99377.69;;;22.31;43.34
64115;BME280;62188;35.640;139.748;2023-04-16T00:51:36;99376.27;;;22.18;43.49
64115;BME280;62188;35.640;139.748;2023-04-16T00:54:02;99365.08;;;22.03;43.32
64115;BME280;62188;35.640;139.748;2023-04-16T00:56:27;99358.87;;;22.39;42.88
64115;BME280;62188;35.640;139.748;2023-04-16T00:58:52;99351.10;;;21.97;43.16
64115;BME280;62188;35.640;139.748;2023-04-16T01:01:17;99338.91;;;22.32;43.03
64115;BME280;62188;35.640;139.748;2023-04-16T01:03:45;99344.15;;;22.54;42.49
64115;BME280;62188;35.640;139.748;2023-04-16T01:06:09;99343.70;;;22.60;42.50
64115;BME280;62188;35.640;139.748;2023-04-16T01:08:34;99350.89;;;22.74;42.40
64115;BME280;62188;35.640;139.748;2023-04-16T01:10:59;99364.56;;;22.86;42.26
64115;BME280;62188;35.640;139.748;2023-04-16T01:13:24;99373.60;;;22.83;41.97
64115;BME280;62188;35.640;139.748;2023-04-16T01:15:50;99381.53;;;22.65;41.37
64115;BME280;62188;35.640;139.748;2023-04-16T01:18:16;99381.28;;;22.67;41.90
64115;BME280;62188;35.640;139.748;2023-04-16T01:20:41;99374.29;;;22.73;41.93
64115;BME280;62188;35.640;139.748;2023-04-16T01:23:07;99369.65;;;23.04;41.47
64115;BME280;62188;35.640;139.748;2023-04-16T01:25:32;99380.11;;;23.19;41.93
64115;BME280;62188;35.640;139.748;2023-04-16T01:27:57;99386.95;;;23.19;41.29
64115;BME280;62188;35.640;139.748;2023-04-16T01:30:23;99382.16;;;23.17;41.35
64115;BME280;62188;35.640;139.748;2023-04-16T01:32:48;99379.96;;;23.34;41.33
64115;BME280;62188;35.640;139.748;2023-04-16T01:35:14;99380.41;;;23.39;41.40
64115;BME280;62188;35.640;139.748;2023-04-16T01:37:40;99374.84;;;23.80;40.25
64115;BME280;62188;35.640;139.748;2023-04-16T01:40:05;99376.16;;;23.41;40.37
64115;BME280;62188;35.640;139.748;2023-04-16T01:42:30;99377.11;;;23.72;40.31
64115;BME280;62188;35.640;139.748;2023-04-16T01:44:55;99375.33;;;23.83;40.30
64115;BME280;62188;35.640;139.748;2023-04-16T01:47:21;99375.10;;;24.01;39.58
64115;BME280;62188;35.640;139.748;2023-04-16T01:49:46;99376.40;;;24.43;39.41
64115;BME280;62188;35.640;139.748;2023-04-16T01:52:12;99377.04;;;24.43;39.58
64115;BME280;62188;35.640;139.748;2023-04-16T01:54:37;99374.02;;;24.66;39.42
64115;BME280;62188;35.640;139.748;2023-04-16T01:57:02;99369.42;;;24.78;38.86
64115;BME280;62188;35.640;139.748;2023-04-16T01:59:28;99371.59;;;24.67;38.75
64115;BME280;62188;35.640;139.748;2023-04-16T02:01:54;99372.00;;;24.92;38.45
64115;BME280;62188;35.640;139.748;2023-04-16T02:04:19;99374.07;;;24.70;38.30
64115;BME280;62188;35.640;139.748;2023-04-16T02:06:45;99375.01;;;25.01;38.47
64115;BME280;62188;35.640;139.748;2023-04-16T02:09:09;99375.45;;;25.04;38.48
64115;BME280;62188;35.640;139.748;2023-04-16T02:11:35;99369.02;;;25.14;38.45
64115;BME280;62188;35.640;139.748;2023-04-16T02:14:00;99367.97;;;24.79;38.36
64115;BME280;62188;35.640;139.748;2023-04-16T02:16:26;99371.07;;;25.13;37.89
64115;BME280;62188;35.640;139.748;2023-04-16T02:18:51;99364.58;;;25.24;38.07
64115;BME280;62188;35.640;139.748;2023-04-16T02:21:16;99355.85;;;25.10;37.65
64115;BME280;62188;35.640;139.748;2023-04-16T02:23:41;99344.54;;;25.33;37.81
64115;BME280;62188;35.640;139.748;2023-04-16T02:26:07;99336.72;;;25.15;37.61
64115;BME280;62188;35.640;139.748;2023-04-16T02:28:32;99337.47;;;25.17;37.59
64115;BME280;62188;35.640;139.748;2023-04-16T02:30:58;99334.32;;;25.10;37.29
64115;BME280;62188;35.640;139.748;2023-04-16T02:33:23;99329.87;;;25.23;37.29
64115;BME280;62188;35.640;139.748;2023-04-16T02:35:49;99332.27;;;25.11;37.77
64115;BME280;62188;35.640;139.748;2023-04-16T02:38:14;99330.85;;;25.09;37.65
64115;BME280;62188;35.640;139.748;2023-04-16T02:40:39;99321.16;;;24.83;37.90
64115;BME280;62188;35.640;139.748;2023-04-16T02:43:04;99319.44;;;24.84;38.18
64115;BME280;62188;35.640;139.748;2023-04-16T02:45:30;99320.90;;;25.04;38.28
64115;BME280;62188;35.640;139.748;2023-04-16T02:47:55;99322.41;;;24.69;38.50
64115;BME280;62188;35.640;139.748;2023-04-16T02:50:21;99333.27;;;25.23;38.54
64115;BME280;62188;35.640;139.748;2023-04-16T02:52:46;99340.24;;;25.20;38.09
64115;BME280;62188;35.640;139.748;2023-04-16T02:55:12;99340.59;;;24.86;37.49
64115;BME280;62188;35.640;139.748;2023-04-16T02:57:37;99337.22;;;24.97;37.90
64115;BME280;62188;35.640;139.748;2023-04-16T03:00:03;99331.56;;;24.98;37.85
64115;BME280;62188;35.640;139.748;2023-04-16T03:02:27;99326.62;;;25.08;38.41
64115;BME280;62188;35.640;139.748;2023-04-16T03:04:53;99323.36;;;25.06;38.40
64115;BME280;62188;35.640;139.748;2023-04-16T03:07:19;99319.35;;;24.95;39.64
64115;BME280;62188;35.640;139.748;2023-04-16T03:09:44;99313.05;;;25.08;38.39
64115;BME280;62188;35.640;139.748;2023-04-16T03:12:08;99312.89;;;24.99;38.82
64115;BME280;62188;35.640;139.748;2023-04-16T03:14:34;99314.32;;;25.27;38.79
64115;BME280;62188;35.640;139.748;2023-04-16T03:17:00;99312.26;;;25.27;39.71
64115;BME280;62188;35.640;139.748;2023-04-16T03:19:26;99307.07;;;24.77;40.95
64115;BME280;62188;35.640;139.748;2023-04-16T03:21:51;99307.35;;;24.74;39.42
64115;BME280;62188;35.640;139.748;2023-04-16T03:24:17;99305.87;;;24.74;39.93
64115;BME280;62188;35.640;139.748;2023-04-16T03:26:42;99302.74;;;24.73;39.70
64115;BME280;62188;35.640;139.748;2023-04-16T03:29:08;99303.35;;;24.81;39.26
64115;BME280;62188;35.640;139.748;2023-04-16T03:31:34;99310.12;;;24.65;39.49
64115;BME280;62188;35.640;139.748;2023-04-16T03:33:59;99314.50;;;24.47;39.34
64115;BME280;62188;35.640;139.748;2023-04-16T03:36:24;99319.36;;;24.41;39.22
64115;BME280;62188;35.640;139.748;2023-04-16T03:38:50;99324.77;;;24.48;38.54
64115;BME280;62188;35.640;139.748;2023-04-16T03:41:15;99331.24;;;24.44;38.46
64115;BME280;62188;35.640;139.748;2023-04-16T03:43:41;99326.59;;;24.64;37.18
64115;BME280;62188;35.640;139.748;2023-04-16T03:46:06;99327.74;;;25.07;36.88
64115;BME280;62188;35.640;139.748;2023-04-16T03:48:31;99326.60;;;24.85;35.09
64115;BME280;62188;35.640;139.748;2023-04-16T03:50:56;99329.20;;;25.15;36.47
64115;BME280;62188;35.640;139.748;2023-04-16T03:53:22;99319.84;;;24.86;36.66
64115;BME280;62188;35.640;139.748;2023-04-16T03:55:50;99308.56;;;24.84;36.09
64115;BME280;62188;35.640;139.748;2023-04-16T03:58:12;99299.01;;;25.02;35.76
64115;BME280;62188;35.640;139.748;2023-04-16T04:00:41;99292.90;;;24.96;34.80
64115;BME280;62188;35.640;139.748;2023-04-16T04:03:03;99290.69;;;25.20;35.16
64115;BME280;62188;35.640;139.748;2023-04-16T04:05:29;99294.92;;;25.08;34.90
64115;BME280;62188;35.640;139.748;2023-04-16T04:07:54;99303.09;;;25.18;34.86
64115;BME280;62188;35.640;139.748;2023-04-16T04:10:20;99306.46;;;25.55;34.87
64115;BME280;62188;35.640;139.748;2023-04-16T04:12:45;99303.11;;;25.49;34.41
64115;BME280;62188;35.640;139.748;2023-04-16T04:15:11;99305.93;;;25.57;34.17
64115;BME280;62188;35.640;139.748;2023-04-16T04:17:36;99307.29;;;25.68;34.12
64115;BME280;62188;35.640;139.748;2023-04-16T04:20:01;99309.72;;;25.56;33.70
64115;BME280;62188;35.640;139.748;2023-04-16T04:22:26;99309.10;;;24.97;34.50
64115;BME280;62188;35.640;139.748;2023-04-16T04:24:51;99306.26;;;24.98;34.35
64115;BME280;62188;35.640;139.748;2023-04-16T04:27:17;99310.86;;;24.81;34.15
64115;BME280;62188;35.640;139.748;2023-04-16T04:29:43;99313.50;;;24.59;34.95
64115;BME280;62188;35.640;139.748;2023-04-16T04:32:08;99300.46;;;24.42;35.44
64115;BME280;62188;35.640;139.748;2023-04-16T04:34:33;99305.93;;;24.25;35.93
64115;BME280;62188;35.640;139.748;2023-04-16T04:36:58;99313.31;;;24.16;36.55
64115;BME280;62188;35.640;139.748;2023-04-16T04:39:24;99296.77;;;24.05;36.72
64115;BME280;62188;35.640;139.748;2023-04-16T04:41:49;99312.37;;;23.96;37.39
64115;BME280;62188;35.640;139.748;2023-04-16T04:44:15;99321.93;;;23.86;38.14
64115;BME280;62188;35.640;139.748;2023-04-16T04:46:40;99291.82;;;23.71;38.37
64115;BME280;62188;35.640;139.748;2023-04-16T04:49:05;99309.73;;;23.67;37.85
64115;BME280;62188;35.640;139.748;2023-04-16T04:51:30;99295.43;;;23.25;37.75
64115;BME280;62188;35.640;139.748;2023-04-16T04:53:56;99288.41;;;23.21;37.91
64115;BME280;62188;35.640;139.748;2023-04-16T04:56:22;99273.25;;;23.38;38.00
64115;BME280;62188;35.640;139.748;2023-04-16T04:58:48;99271.15;;;22.96;38.30
64115;BME280;62188;35.640;139.748;2023-04-16T05:01:13;99295.98;;;22.98;38.00
64115;BME280;62188;35.640;139.748;2023-04-16T05:03:38;99332.72;;;22.94;37.90
64115;BME280;62188;35.640;139.748;2023-04-16T05:06:05;99349.83;;;23.01;38.25
64115;BME280;62188;35.640;139.748;2023-04-16T05:08:29;99339.40;;;23.09;37.61
64115;BME280;62188;35.640;139.748;2023-04-16T05:10:54;99334.90;;;22.91;36.85
64115;BME280;62188;35.640;139.748;2023-04-16T05:13:20;99351.30;;;23.13;36.52
64115;BME280;62188;35.640;139.748;2023-04-16T05:15:45;99354.26;;;23.23;36.74
64115;BME280;62188;35.640;139.748;2023-04-16T05:18:10;99360.32;;;23.10;36.54
64115;BME280;62188;35.640;139.748;2023-04-16T05:20:36;99355.54;;;23.42;36.81
64115;BME280;62188;35.640;139.748;2023-04-16T05:23:01;99348.74;;;23.50;36.95
64115;BME280;62188;35.640;139.748;2023-04-16T05:25:27;99337.32;;;23.05;37.04
64115;BME280;62188;35.640;139.748;2023-04-16T05:27:52;99337.02;;;23.27;37.62
64115;BME280;62188;35.640;139.748;2023-04-16T05:30:18;99318.41;;;23.25;38.01
64115;BME280;62188;35.640;139.748;2023-04-16T05:32:43;99308.37;;;23.34;38.12
64115;BME280;62188;35.640;139.748;2023-04-16T05:35:09;99312.10;;;23.12;38.20
64115;BME280;62188;35.640;139.748;2023-04-16T05:37:34;99321.82;;;23.13;38.35
64115;BME280;62188;35.640;139.748;2023-04-16T05:39:59;99315.82;;;23.40;38.34
64115;BME280;62188;35.640;139.748;2023-04-16T05:42:25;99307.54;;;23.66;38.43
64115;BME280;62188;35.640;139.748;2023-04-16T05:44:51;99307.83;;;23.42;38.23
64115;BME280;62188;35.640;139.748;2023-04-16T05:47:16;99310.89;;;23.17;38.18
64115;BME280;62188;35.640;139.748;2023-04-16T05:49:41;99314.42;;;23.08;38.06
64115;BME280;62188;35.640;139.748;2023-04-16T05:52:07;99315.46;;;23.13;38.00
64115;BME280;62188;35.640;139.748;2023-04-16T05:54:32;99311.01;;;23.38;37.93
64115;BME280;62188;35.640;139.748;2023-04-16T05:56:58;99305.24;;;23.44;37.87
64115;BME280;62188;35.640;139.748;2023-04-16T05:59:23;99297.14;;;23.19;37.24
64115;BME280;62188;35.640;139.748;2023-04-16T06:01:48;99294.22;;;23.43;37.11
64115;BME280;62188;35.640;139.748;2023-04-16T06:04:14;99289.65;;;23.17;37.10
64115;BME280;62188;35.640;139.748;2023-04-16T06:06:39;99288.40;;;23.17;37.14
64115;BME280;62188;35.640;139.748;2023-04-16T06:09:04;99286.37;;;23.20;36.71
64115;BME280;62188;35.640;139.748;2023-04-16T06:11:30;99281.22;;;23.18;36.55
64115;BME280;62188;35.640;139.748;2023-04-16T06:13:55;99280.24;;;23.40;36.76
64115;BME280;62188;35.640;139.748;2023-04-16T06:16:21;99286.06;;;23.19;36.64
64115;BME280;62188;35.640;139.748;2023-04-16T06:18:46;99300.21;;;23.43;36.48
64115;BME280;62188;35.640;139.748;2023-04-16T06:21:12;99307.19;;;23.39;36.19
64115;BME280;62188;35.640;139.748;2023-04-16T06:23:37;99309.77;;;23.39;36.25
64115;BME280;62188;35.640;139.748;2023-04-16T06:26:03;99314.22;;;23.17;35.63
64115;BME280;62188;35.640;139.748;2023-04-16T06:28:28;99314.73;;;23.38;34.47
64115;BME280;62188;35.640;139.748;2023-04-16T06:30:53;99324.48;;;23.39;34.41
64115;BME280;62188;35.640;139.748;2023-04-16T06:33:19;99326.89;;;23.16;34.46
64115;BME280;62188;35.640;139.748;2023-04-16T06:35:50;99329.33;;;23.39;34.09
64115;BME280;62188;35.640;139.748;2023-04-16T06:38:10;99331.62;;;23.37;33.67
64115;BME280;62188;35.640;139.748;2023-04-16T06:40:44;99316.47;;;23.14;33.70
64115;BME280;62188;35.640;139.748;2023-04-16T06:43:01;99307.30;;;23.12;33.34
64115;BME280;62188;35.640;139.748;2023-04-16T06:45:26;99306.04;;;23.11;33.35
64115;BME280;62188;35.640;139.748;2023-04-16T06:47:51;99310.96;;;23.07;32.77
64115;BME280;62188;35.640;139.748;2023-04-16T06:50:17;99294.82;;;23.30;30.87
64115;BME280;62188;35.640;139.748;2023-04-16T06:52:42;99293.58;;;23.44;30.20
64115;BME280;62188;35.640;139.748;2023-04-16T06:55:09;99309.46;;;22.94;30.24
64115;BME280;62188;35.640;139.748;2023-04-16T06:57:34;99306.92;;;22.99;30.33
64115;BME280;62188;35.640;139.748;2023-04-16T06:59:59;99321.50;;;23.24;30.96
64115;BME280;62188;35.640;139.748;2023-04-16T07:02:24;99338.88;;;23.23;30.35
64115;BME280;62188;35.640;139.748;2023-04-16T07:04:49;99348.31;;;23.47;30.77
64115;BME280;62188;35.640;139.748;2023-04-16T07:07:15;99375.96;;;23.24;31.05
64115;BME280;62188;35.640;139.748;2023-04-16T07:09:40;99369.29;;;23.47;31.41
64115;BME280;62188;35.640;139.748;2023-04-16T07:12:06;99343.25;;;23.18;32.54
64115;BME280;62188;35.640;139.748;2023-04-16T07:14:31;99347.35;;;23.04;32.57
64115;BME280;62188;35.640;139.748;2023-04-16T07:16:57;99369.46;;;23.23;33.37
64115;BME280;62188;35.640;139.748;2023-04-16T07:19:22;99379.63;;;23.00;33.80
64115;BME280;62188;35.640;139.748;2023-04-16T07:21:48;99392.18;;;22.74;33.93
64115;BME280;62188;35.640;139.748;2023-04-16T07:24:13;99386.76;;;22.69;34.32
64115;BME280;62188;35.640;139.748;2023-04-16T07:26:38;99384.29;;;22.68;35.50
64115;BME280;62188;35.640;139.748;2023-04-16T07:29:03;99381.09;;;23.06;36.24
64115;BME280;62188;35.640;139.748;2023-04-16T07:31:29;99389.10;;;22.72;36.50
64115;BME280;62188;35.640;139.748;2023-04-16T07:34:00;99393.53;;;22.94;37.67
64115;BME280;62188;35.640;139.748;2023-04-16T07:36:20;99400.55;;;22.78;37.73
64115;BME280;62188;35.640;139.748;2023-04-16T07:38:45;99407.80;;;22.75;37.93
64115;BME280;62188;35.640;139.748;2023-04-16T07:41:11;99394.69;;;22.69;37.59
64115;BME280;62188;35.640;139.748;2023-04-16T07:43:36;99392.48;;;22.61;38.14
64115;BME280;62188;35.640;139.748;2023-04-16T07:46:02;99400.55;;;22.48;37.76
64115;BME280;62188;35.640;139.748;2023-04-16T07:48:27;99396.35;;;22.67;37.66
64115;BME280;62188;35.640;139.748;2023-04-16T07:50:52;99397.45;;;22.65;37.86
64115;BME280;62188;35.640;139.748;2023-04-16T07:53:18;99394.91;;;22.42;37.95
64115;BME280;62188;35.640;139.748;2023-04-16T07:55:43;99409.16;;;22.73;38.27
64115;BME280;62188;35.640;139.748;2023-04-16T07:58:09;99413.85;;;23.03;38.25
64115;BME280;62188;35.640;139.748;2023-04-16T08:00:34;99412.66;;;22.61;38.04
64115;BME280;62188;35.640;139.748;2023-04-16T08:03:00;99408.83;;;22.34;37.93
64115;BME280;62188;35.640;139.748;2023-04-16T08:05:25;99405.06;;;22.53;37.73
64115;BME280;62188;35.640;139.748;2023-04-16T08:07:50;99415.59;;;22.49;37.71
64115;BME280;62188;35.640;139.748;2023-04-16T08:10:16;99435.37;;;22.41;37.92
64115;BME280;62188;35.640;139.748;2023-04-16T08:12:41;99445.48;;;22.40;38.47
64115;BME280;62188;35.640;139.748;2023-04-16T08:15:08;99439.58;;;22.65;38.92
64115;BME280;62188;35.640;139.748;2023-04-16T08:17:32;99428.99;;;22.30;38.76
64115;BME280;62188;35.640;139.748;2023-04-16T08:19:58;99420.08;;;22.51;38.81
64115;BME280;62188;35.640;139.748;2023-04-16T08:22:24;99421.59;;;22.29;38.61
64115;BME280;62188;35.640;139.748;2023-04-16T08:24:48;99432.48;;;22.31;38.44
64115;BME280;62188;35.640;139.748;2023-04-16T08:27:14;99442.82;;;22.78;38.67
64115;BME280;62188;35.640;139.748;2023-04-16T08:29:40;99454.68;;;22.27;38.53
64115;BME280;62188;35.640;139.748;2023-04-16T08:32:05;99458.01;;;22.46;38.15
64115;BME280;62188;35.640;139.748;2023-04-16T08:34:30;99462.01;;;22.41;38.28
64115;BME280;62188;35.640;139.748;2023-04-16T08:36:56;99469.31;;;22.13;37.75
64115;BME280;62188;35.640;139.748;2023-04-16T08:39:22;99481.26;;;22.17;38.07
64115;BME280;62188;35.640;139.748;2023-04-16T08:41:47;99477.60;;;22.17;38.14
64115;BME280;62188;35.640;139.748;2023-04-16T08:44:16;99471.46;;;22.41;38.22
64115;BME280;62188;35.640;139.748;2023-04-16T08:46:38;99470.79;;;22.69;37.92
64115;BME280;62188;35.640;139.748;2023-04-16T08:49:06;99468.64;;;22.40;37.54
64115;BME280;62188;35.640;139.748;2023-04-16T08:51:31;99473.05;;;22.63;37.32
64115;BME280;62188;35.640;139.748;2023-04-16T08:53:58;99474.55;;;22.17;37.34
64115;BME280;62188;35.640;139.748;2023-04-16T08:56:21;99480.11;;;22.16;37.29
64115;BME280;62188;35.640;139.748;2023-04-16T08:58:48;99489.86;;;22.13;36.71
64115;BME280;62188;35.640;139.748;2023-04-16T09:01:11;99489.40;;;22.10;36.45
64115;BME280;62188;35.640;139.748;2023-04-16T09:03:36;99499.34;;;22.43;36.36
64115;BME280;62188;35.640;139.748;2023-04-16T09:06:03;99505.53;;;22.47;36.22
64115;BME280;62188;35.640;139.748;2023-04-16T09:08:28;99510.18;;;22.46;35.91
64115;BME280;62188;35.640;139.748;2023-04-16T09:10:53;99515.34;;;22.23;36.07
64115;BME280;62188;35.640;139.748;2023-04-16T09:13:18;99517.58;;;22.19;35.90
64115;BME280;62188;35.640;139.748;2023-04-16T09:15:44;99524.08;;;22.40;36.19
64115;BME280;62188;35.640;139.748;2023-04-16T09:18:10;99532.30;;;22.44;36.33
64115;BME280;62188;35.640;139.748;2023-04-16T09:20:34;99546.09;;;22.20;36.62
64115;BME280;62188;35.640;139.748;2023-04-16T09:23:00;99557.01;;;22.41;36.77
64115;BME280;62188;35.640;139.748;2023-04-16T09:25:25;99557.25;;;22.15;36.90
64115;BME280;62188;35.640;139.748;2023-04-16T09:27:51;99562.08;;;22.40;37.10
64115;BME280;62188;35.640;139.748;2023-04-16T09:30:23;99563.61;;;22.11;37.33
64115;BME280;62188;35.640;139.748;2023-04-16T09:32:41;99575.37;;;22.13;37.47
64115;BME280;62188;35.640;139.748;2023-04-16T09:35:07;99587.16;;;22.36;37.60
64115;BME280;62188;35.640;139.748;2023-04-16T09:37:32;99596.31;;;22.34;37.71
64115;BME280;62188;35.640;139.748;2023-04-16T09:39:59;99601.61;;;22.12;37.88
64115;BME280;62188;35.640;139.748;2023-04-16T09:42:25;99607.50;;;22.16;37.85
64115;BME280;62188;35.640;139.748;2023-04-16T09:44:49;99610.87;;;22.36;38.08
64115;BME280;62188;35.640;139.748;2023-04-16T09:47:13;99611.99;;;22.30;38.25
64115;BME280;62188;35.640;139.748;2023-04-16T09:49:42;99620.69;;;21.94;38.44
64115;BME280;62188;35.640;139.748;2023-04-16T09:52:12;99625.43;;;21.89;38.74
64115;BME280;62188;35.640;139.748;2023-04-16T09:54:31;99631.21;;;22.09;38.64
64115;BME280;62188;35.640;139.748;2023-04-16T09:56:57;99637.39;;;21.80;38.32
64115;BME280;62188;35.640;139.748;2023-04-16T09:59:22;99645.03;;;21.73;38.10
64115;BME280;62188;35.640;139.748;2023-04-16T10:01:47;99643.21;;;21.66;38.55
64115;BME280;62188;35.640;139.748;2023-04-16T10:04:12;99641.96;;;21.91;38.75
64115;BME280;62188;35.640;139.748;2023-04-16T10:06:38;99645.88;;;22.11;38.75
64115;BME280;62188;35.640;139.748;2023-04-16T10:09:07;99645.17;;;21.81;38.71
64115;BME280;62188;35.640;139.748;2023-04-16T10:11:29;99651.58;;;21.70;38.39
64115;BME280;62188;35.640;139.748;2023-04-16T10:13:54;99655.77;;;21.84;38.44
64115;BME280;62188;35.640;139.748;2023-04-16T10:16:20;99656.08;;;21.53;38.57
64115;BME280;62188;35.640;139.748;2023-04-16T10:18:46;99655.99;;;21.72;38.77
64115;BME280;62188;35.640;139.748;2023-04-16T10:21:11;99660.11;;;21.53;38.95
64115;BME280;62188;35.640;139.748;2023-04-16T10:23:36;99671.83;;;21.54;39.11
64115;BME280;62188;35.640;139.748;2023-04-16T10:26:02;99682.41;;;21.72;39.67
64115;BME280;62188;35.640;139.748;2023-04-16T10:28:27;99690.67;;;21.72;39.88
64115;BME280;62188;35.640;139.748;2023-04-16T10:30:53;99696.24;;;21.73;40.19
64115;BME280;62188;35.640;139.748;2023-04-16T10:33:20;99699.47;;;21.74;40.38
64115;BME280;62188;35.640;139.748;2023-04-16T10:35:45;99697.62;;;21.73;40.60
64115;BME280;62188;35.640;139.748;2023-04-16T10:38:20;99703.40;;;21.72;40.71
64115;BME280;62188;35.640;139.748;2023-04-16T10:40:35;99711.61;;;21.44;40.90
64115;BME280;62188;35.640;139.748;2023-04-16T10:43:00;99719.31;;;21.67;41.00
64115;BME280;62188;35.640;139.748;2023-04-16T10:45:30;99727.84;;;21.41;41.07
64115;BME280;62188;35.640;139.748;2023-04-16T10:47:51;99736.63;;;21.67;41.20
64115;BME280;62188;35.640;139.748;2023-04-16T10:50:17;99735.45;;;21.64;41.18
64115;BME280;62188;35.640;139.748;2023-04-16T10:52:42;99738.03;;;21.53;41.30
64115;BME280;62188;35.640;139.748;2023-04-16T10:55:10;99746.35;;;21.46;41.50
64115;BME280;62188;35.640;139.748;2023-04-16T10:57:32;99754.75;;;21.37;41.72
64115;BME280;62188;35.640;139.748;2023-04-16T10:59:58;99751.01;;;21.22;41.99
64115;BME280;62188;35.640;139.748;2023-04-16T11:02:28;99762.19;;;20.97;42.46
64115;BME280;62188;35.640;139.748;2023-04-16T11:04:49;99764.58;;;20.73;42.64
64115;BME280;62188;35.640;139.748;2023-04-16T11:07:18;99771.08;;;20.62;42.71
64115;BME280;62188;35.640;139.748;2023-04-16T11:09:46;99779.05;;;20.72;42.67
64115;BME280;62188;35.640;139.748;2023-04-16T11:12:08;99780.68;;;20.74;42.60
64115;BME280;62188;35.640;139.748;2023-04-16T11:14:32;99787.14;;;20.65;43.09
64115;BME280;62188;35.640;139.748;2023-04-16T11:16:56;99789.75;;;20.67;42.91
64115;BME280;62188;35.640;139.748;2023-04-16T11:19:22;99797.88;;;20.79;42.99
64115;BME280;62188;35.640;139.748;2023-04-16T11:21:48;99804.77;;;20.78;42.73
64115;BME280;62188;35.640;139.748;2023-04-16T11:24:13;99806.66;;;20.56;42.57
64115;BME280;62188;35.640;139.748;2023-04-16T11:26:38;99809.20;;;20.57;42.11
64115;BME280;62188;35.640;139.748;2023-04-16T11:29:13;99815.59;;;20.92;42.32
64115;BME280;62188;35.640;139.748;2023-04-16T11:31:29;99817.66;;;20.82;42.24
64115;BME280;62188;35.640;139.748;2023-04-16T11:33:56;99818.50;;;20.58;42.07
64115;BME280;62188;35.640;139.748;2023-04-16T11:36:20;99822.79;;;20.71;42.28
64115;BME280;62188;35.640;139.748;2023-04-16T11:38:47;99824.84;;;20.78;42.18
64115;BME280;62188;35.640;139.748;2023-04-16T11:41:18;99836.29;;;20.89;42.87
64115;BME280;62188;35.640;139.748;2023-04-16T11:43:37;99845.90;;;20.28;43.47
64115;BME280;62188;35.640;139.748;2023-04-16T11:46:04;99853.90;;;20.33;43.37
64115;BME280;62188;35.640;139.748;2023-04-16T11:50:57;99871.64;;;20.57;42.09
64115;BME280;62188;35.640;139.748;2023-04-16T11:53:19;99881.11;;;20.64;41.56
64115;BME280;62188;35.640;139.748;2023-04-16T11:55:44;99890.40;;;20.55;41.62
64115;BME280;62188;35.640;139.748;2023-04-16T11:58:13;99897.52;;;20.36;42.13
64115;BME280;62188;35.640;139.748;2023-04-16T12:00:35;99904.30;;;20.75;42.98
64115;BME280;62188;35.640;139.748;2023-04-16T12:03:03;99905.97;;;20.59;42.70
64115;BME280;62188;35.640;139.748;2023-04-16T12:05:28;99916.64;;;20.64;42.47
64115;BME280;62188;35.640;139.748;2023-04-16T12:07:52;99922.52;;;20.72;42.15
64115;BME280;62188;35.640;139.748;2023-04-16T12:10:18;99933.23;;;20.75;42.41
64115;BME280;62188;35.640;139.748;2023-04-16T12:12:43;99940.53;;;20.81;40.89
64115;BME280;62188;35.640;139.748;2023-04-16T12:15:09;99949.42;;;21.07;40.61
64115;BME280;62188;35.640;139.748;2023-04-16T12:17:35;99950.53;;;20.93;40.45
64115;BME280;62188;35.640;139.748;2023-04-16T12:20:01;99950.17;;;20.92;39.96
64115;BME280;62188;35.640;139.748;2023-04-16T12:22:29;99949.49;;;21.23;39.84
64115;BME280;62188;35.640;139.748;2023-04-16T12:24:57;99943.50;;;21.02;39.75
64115;BME280;62188;35.640;139.748;2023-04-16T12:27:16;99933.96;;;21.04;39.63
64115;BME280;62188;35.640;139.748;2023-04-16T12:29:42;99937.55;;;20.99;39.75
64115;BME280;62188;35.640;139.748;2023-04-16T12:34:32;99933.48;;;20.95;40.09